sensor_id;sensor_type;location;lat;lon;timestamp;temperature;humidity
25280;DHT22;13225;47.804;12.116;2023-10-31T00:01:26;11.00;99.90
25280;DHT22;13225;47.804;12.116;2023-10-31T00:03:51;11.00;99.90
25280;DHT22;13225;47.804;12.116;2023-10-31T00:06:17;10.90;99.90
25280;DHT22;13225;47.804;12.116;2023-10-31T00:08:42;10.80;99.90
25280;DHT22;13225;47.804;12.116;2023-10-31T00:11:08;10.80;99.90
25280;DHT22;13225;47.804;12.116;2023-10-31T00:13:33;10.80;99.90
25280;DHT22;13225;47.804;12.116;2023-10-31T00:15:59;10.70;99.90
25280;DHT22;13225;47.804;12.116;2023-10-31T00:18:25;10.60;99.90
25280;DHT22;13225;47.804;12.116;2023-10-31T00:20:50;10.60;99.90
25280;DHT22;13225;47.804;12.116;2023-10-31T00:23:16;10.50;99.90
25280;DHT22;13225;47.804;12.116;2023-10-31T00:25:41;10.50;99.90
25280;DHT22;13225;47.804;12.116;2023-10-31T00:28:07;10.40;99.90
25280;DHT22;13225;47.804;12.116;2023-10-31T00:30:32;10.40;99.90
25280;DHT22;13225;47.804;12.116;2023-10-31T00:32:58;10.40;99.90
25280;DHT22;13225;47.804;12.116;2023-10-31T00:35:24;10.40;99.90
25280;DHT22;13225;47.804;12.116;2023-10-31T00:37:49;10.40;99.90
25280;DHT22;13225;47.804;12.116;2023-10-31T00:40:15;10.40;99.90
25280;DHT22;13225;47.804;12.116;2023-10-31T00:42:42;10.40;99.90
25280;DHT22;13225;47.804;12.116;2023-10-31T00:45:08;10.30;99.90
25280;DHT22;13225;47.804;12.116;2023-10-31T00:47:34;10.30;99.90
25280;DHT22;13225;47.804;12.116;2023-10-31T00:50:00;10.30;99.90
25280;DHT22;13225;47.804;12.116;2023-10-31T00:52:25;10.20;99.90
25280;DHT22;13225;47.804;12.116;2023-10-31T00:54:51;10.20;99.90
25280;DHT22;13225;47.804;12.116;2023-10-31T00:57:16;10.20;99.90
25280;DHT22;13225;47.804;12.116;2023-10-31T00:59:42;10.20;99.90
25280;DHT22;13225;47.804;12.116;2023-10-31T01:02:08;10.20;99.90
25280;DHT22;13225;47.804;12.116;2023-10-31T01:04:36;10.20;99.90
25280;DHT22;13225;47.804;12.116;2023-10-31T01:07:01;10.20;99.90
25280;DHT22;13225;47.804;12.116;2023-10-31T01:09:27;10.20;99.90
25280;DHT22;13225;47.804;12.116;2023-10-31T01:11:52;10.20;99.90
25280;DHT22;13225;47.804;12.116;2023-10-31T01:14:18;10.20;99.90
25280;DHT22;13225;47.804;12.116;2023-10-31T01:16:43;10.10;99.90
25280;DHT22;13225;47.804;12.116;2023-10-31T01:19:09;10.10;99.90
25280;DHT22;13225;47.804;12.116;2023-10-31T01:21:35;10.10;99.90
25280;DHT22;13225;47.804;12.116;2023-10-31T01:24:01;10.10;99.90
25280;DHT22;13225;47.804;12.116;2023-10-31T01:26:26;10.10;99.90
25280;DHT22;13225;47.804;12.116;2023-10-31T01:28:52;10.00;99.90
25280;DHT22;13225;47.804;12.116;2023-10-31T01:31:18;10.00;99.90
25280;DHT22;13225;47.804;12.116;2023-10-31T01:33:43;10.00;99.90
25280;DHT22;13225;47.804;12.116;2023-10-31T01:36:09;10.00;99.90
25280;DHT22;13225;47.804;12.116;2023-10-31T01:38:38;10.00;99.90
25280;DHT22;13225;47.804;12.116;2023-10-31T01:41:04;9.90;99.90
25280;DHT22;13225;47.804;12.116;2023-10-31T01:43:34;9.90;99.90
25280;DHT22;13225;47.804;12.116;2023-10-31T01:46:00;10.00;99.90
25280;DHT22;13225;47.804;12.116;2023-10-31T01:48:28;10.00;99.90
25280;DHT22;13225;47.804;12.116;2023-10-31T01:50:54;10.00;99.90
25280;DHT22;13225;47.804;12.116;2023-10-31T01:53:20;10.00;99.90
25280;DHT22;13225;47.804;12.116;2023-10-31T01:55:46;10.00;99.90
25280;DHT22;13225;47.804;12.116;2023-10-31T01:58:12;10.00;99.90
25280;DHT22;13225;47.804;12.116;2023-10-31T02:00:40;10.00;99.90
25280;DHT22;13225;47.804;12.116;2023-10-31T02:03:08;10.00;99.90
25280;DHT22;13225;47.804;12.116;2023-10-31T02:05:34;10.00;99.90
25280;DHT22;13225;47.804;12.116;2023-10-31T02:08:03;9.90;99.90
25280;DHT22;13225;47.804;12.116;2023-10-31T02:10:30;9.90;99.90
25280;DHT22;13225;47.804;12.116;2023-10-31T02:12:55;9.90;99.90
25280;DHT22;13225;47.804;12.116;2023-10-31T02:15:21;9.90;99.90
25280;DHT22;13225;47.804;12.116;2023-10-31T02:17:46;9.80;99.90
25280;DHT22;13225;47.804;12.116;2023-10-31T02:20:12;9.90;99.90
25280;DHT22;13225;47.804;12.116;2023-10-31T02:22:37;9.90;99.90
25280;DHT22;13225;47.804;12.116;2023-10-31T02:25:08;9.90;99.90
25280;DHT22;13225;47.804;12.116;2023-10-31T02:27:40;9.90;99.90
25280;DHT22;13225;47.804;12.116;2023-10-31T02:30:06;9.90;99.90
25280;DHT22;13225;47.804;12.116;2023-10-31T02:32:32;9.80;99.90
25280;DHT22;13225;47.804;12.116;2023-10-31T02:34:57;9.80;99.90
25280;DHT22;13225;47.804;12.116;2023-10-31T02:37:23;9.80;99.90
25280;DHT22;13225;47.804;12.116;2023-10-31T02:39:48;9.80;99.90
25280;DHT22;13225;47.804;12.116;2023-10-31T02:42:14;9.80;99.90
25280;DHT22;13225;47.804;12.116;2023-10-31T02:44:39;9.80;99.90
25280;DHT22;13225;47.804;12.116;2023-10-31T02:47:05;9.80;99.90
25280;DHT22;13225;47.804;12.116;2023-10-31T02:49:31;9.80;99.90
25280;DHT22;13225;47.804;12.116;2023-10-31T02:51:56;9.80;99.90
25280;DHT22;13225;47.804;12.116;2023-10-31T02:54:22;9.80;99.90
25280;DHT22;13225;47.804;12.116;2023-10-31T02:56:47;9.80;99.90
25280;DHT22;13225;47.804;12.116;2023-10-31T02:59:13;9.80;99.90
25280;DHT22;13225;47.804;12.116;2023-10-31T03:01:39;9.70;99.90
25280;DHT22;13225;47.804;12.116;2023-10-31T03:04:04;9.80;99.90
25280;DHT22;13225;47.804;12.116;2023-10-31T03:06:30;9.80;99.90
25280;DHT22;13225;47.804;12.116;2023-10-31T03:08:56;9.80;99.90
25280;DHT22;13225;47.804;12.116;2023-10-31T03:11:23;9.80;99.90
25280;DHT22;13225;47.804;12.116;2023-10-31T03:13:49;9.70;99.90
25280;DHT22;13225;47.804;12.116;2023-10-31T03:16:15;9.70;99.90
25280;DHT22;13225;47.804;12.116;2023-10-31T03:18:40;9.70;99.90
25280;DHT22;13225;47.804;12.116;2023-10-31T03:21:06;9.70;99.90
25280;DHT22;13225;47.804;12.116;2023-10-31T03:23:31;9.70;99.90
25280;DHT22;13225;47.804;12.116;2023-10-31T03:25:57;9.70;99.90
25280;DHT22;13225;47.804;12.116;2023-10-31T03:28:22;9.70;99.90
25280;DHT22;13225;47.804;12.116;2023-10-31T03:30:49;9.70;99.90
25280;DHT22;13225;47.804;12.116;2023-10-31T03:33:15;9.70;99.90
25280;DHT22;13225;47.804;12.116;2023-10-31T03:35:42;9.80;99.90
25280;DHT22;13225;47.804;12.116;2023-10-31T03:38:07;9.70;99.90
25280;DHT22;13225;47.804;12.116;2023-10-31T03:40:33;9.70;99.90
25280;DHT22;13225;47.804;12.116;2023-10-31T03:42:59;9.70;99.90
25280;DHT22;13225;47.804;12.116;2023-10-31T03:45:24;9.70;99.90
25280;DHT22;13225;47.804;12.116;2023-10-31T03:47:50;9.70;99.90
25280;DHT22;13225;47.804;12.116;2023-10-31T03:50:15;9.70;99.90
25280;DHT22;13225;47.804;12.116;2023-10-31T03:52:41;9.70;99.90
25280;DHT22;13225;47.804;12.116;2023-10-31T03:55:07;9.70;99.90
25280;DHT22;13225;47.804;12.116;2023-10-31T03:57:32;9.80;99.90
25280;DHT22;13225;47.804;12.116;2023-10-31T03:59:58;9.90;99.90
25280;DHT22;13225;47.804;12.116;2023-10-31T04:02:23;9.90;99.90
25280;DHT22;13225;47.804;12.116;2023-10-31T04:04:49;9.90;99.90
25280;DHT22;13225;47.804;12.116;2023-10-31T04:07:14;9.90;99.90
25280;DHT22;13225;47.804;12.116;2023-10-31T04:09:40;10.00;99.90
25280;DHT22;13225;47.804;12.116;2023-10-31T04:12:06;9.90;99.90
25280;DHT22;13225;47.804;12.116;2023-10-31T04:14:31;10.00;99.90
25280;DHT22;13225;47.804;12.116;2023-10-31T04:16:57;10.00;99.90
25280;DHT22;13225;47.804;12.116;2023-10-31T04:19:23;9.90;99.90
25280;DHT22;13225;47.804;12.116;2023-10-31T04:21:48;10.00;99.90
25280;DHT22;13225;47.804;12.116;2023-10-31T04:24:14;9.90;99.90
25280;DHT22;13225;47.804;12.116;2023-10-31T04:26:42;9.90;99.90
25280;DHT22;13225;47.804;12.116;2023-10-31T04:29:08;9.80;99.90
25280;DHT22;13225;47.804;12.116;2023-10-31T04:31:33;9.90;99.90
25280;DHT22;13225;47.804;12.116;2023-10-31T04:33:59;9.80;99.90
25280;DHT22;13225;47.804;12.116;2023-10-31T04:36:24;9.80;99.90
25280;DHT22;13225;47.804;12.116;2023-10-31T04:38:50;9.90;99.90
25280;DHT22;13225;47.804;12.116;2023-10-31T04:41:15;9.80;99.90
25280;DHT22;13225;47.804;12.116;2023-10-31T04:43:41;9.80;99.90
25280;DHT22;13225;47.804;12.116;2023-10-31T04:46:07;9.80;99.90
25280;DHT22;13225;47.804;12.116;2023-10-31T04:48:33;9.70;99.90
25280;DHT22;13225;47.804;12.116;2023-10-31T04:50:59;9.70;99.90
25280;DHT22;13225;47.804;12.116;2023-10-31T04:53:24;9.70;99.90
25280;DHT22;13225;47.804;12.116;2023-10-31T04:55:50;9.70;99.90
25280;DHT22;13225;47.804;12.116;2023-10-31T04:58:15;9.70;99.90
25280;DHT22;13225;47.804;12.116;2023-10-31T05:00:41;9.70;99.90
25280;DHT22;13225;47.804;12.116;2023-10-31T05:03:07;9.70;99.90
25280;DHT22;13225;47.804;12.116;2023-10-31T05:05:32;9.70;99.90
25280;DHT22;13225;47.804;12.116;2023-10-31T05:07:58;9.70;99.90
25280;DHT22;13225;47.804;12.116;2023-10-31T05:10:24;9.70;99.90
25280;DHT22;13225;47.804;12.116;2023-10-31T05:12:50;9.70;99.90
25280;DHT22;13225;47.804;12.116;2023-10-31T05:15:16;9.70;99.90
25280;DHT22;13225;47.804;12.116;2023-10-31T05:17:42;9.70;99.90
25280;DHT22;13225;47.804;12.116;2023-10-31T05:20:08;9.70;99.90
25280;DHT22;13225;47.804;12.116;2023-10-31T05:22:35;9.70;99.90
25280;DHT22;13225;47.804;12.116;2023-10-31T05:25:00;9.60;99.90
25280;DHT22;13225;47.804;12.116;2023-10-31T05:27:26;9.70;99.90
25280;DHT22;13225;47.804;12.116;2023-10-31T05:29:51;9.70;99.90
25280;DHT22;13225;47.804;12.116;2023-10-31T05:32:17;9.80;99.90
25280;DHT22;13225;47.804;12.116;2023-10-31T05:34:42;9.80;99.90
25280;DHT22;13225;47.804;12.116;2023-10-31T05:37:08;9.70;99.90
25280;DHT22;13225;47.804;12.116;2023-10-31T05:39:34;9.70;99.90
25280;DHT22;13225;47.804;12.116;2023-10-31T05:42:02;9.70;99.90
25280;DHT22;13225;47.804;12.116;2023-10-31T05:44:27;9.70;99.90
25280;DHT22;13225;47.804;12.116;2023-10-31T05:46:53;9.70;99.90
25280;DHT22;13225;47.804;12.116;2023-10-31T05:49:19;9.70;99.90
25280;DHT22;13225;47.804;12.116;2023-10-31T05:51:53;9.70;99.90
25280;DHT22;13225;47.804;12.116;2023-10-31T05:54:19;9.60;99.90
25280;DHT22;13225;47.804;12.116;2023-10-31T05:56:44;9.60;99.90
25280;DHT22;13225;47.804;12.116;2023-10-31T05:59:13;9.60;99.90
25280;DHT22;13225;47.804;12.116;2023-10-31T06:01:39;9.60;99.90
25280;DHT22;13225;47.804;12.116;2023-10-31T06:04:04;9.60;99.90
25280;DHT22;13225;47.804;12.116;2023-10-31T06:06:36;9.60;99.90
25280;DHT22;13225;47.804;12.116;2023-10-31T06:09:02;9.60;99.90
25280;DHT22;13225;47.804;12.116;2023-10-31T06:11:27;9.50;99.90
25280;DHT22;13225;47.804;12.116;2023-10-31T06:13:53;9.50;99.90
25280;DHT22;13225;47.804;12.116;2023-10-31T06:16:18;9.50;99.90
25280;DHT22;13225;47.804;12.116;2023-10-31T06:18:44;9.50;99.90
25280;DHT22;13225;47.804;12.116;2023-10-31T06:21:10;9.50;99.90
25280;DHT22;13225;47.804;12.116;2023-10-31T06:23:39;9.50;99.90
25280;DHT22;13225;47.804;12.116;2023-10-31T06:26:04;9.60;99.90
25280;DHT22;13225;47.804;12.116;2023-10-31T06:28:30;9.60;99.90
25280;DHT22;13225;47.804;12.116;2023-10-31T06:30:57;9.60;99.90
25280;DHT22;13225;47.804;12.116;2023-10-31T06:33:22;9.60;99.90
25280;DHT22;13225;47.804;12.116;2023-10-31T06:35:48;9.60;99.90
25280;DHT22;13225;47.804;12.116;2023-10-31T06:38:14;9.60;99.90
25280;DHT22;13225;47.804;12.116;2023-10-31T06:40:39;9.50;99.90
25280;DHT22;13225;47.804;12.116;2023-10-31T06:43:05;9.50;99.90
25280;DHT22;13225;47.804;12.116;2023-10-31T06:45:30;9.50;99.90
25280;DHT22;13225;47.804;12.116;2023-10-31T06:47:56;9.50;99.90
25280;DHT22;13225;47.804;12.116;2023-10-31T06:50:21;9.50;99.90
25280;DHT22;13225;47.804;12.116;2023-10-31T06:52:47;9.50;99.90
25280;DHT22;13225;47.804;12.116;2023-10-31T06:55:13;9.50;99.90
25280;DHT22;13225;47.804;12.116;2023-10-31T06:57:39;9.60;99.90
25280;DHT22;13225;47.804;12.116;2023-10-31T07:00:05;9.70;99.90
25280;DHT22;13225;47.804;12.116;2023-10-31T07:02:34;9.80;99.90
25280;DHT22;13225;47.804;12.116;2023-10-31T07:05:00;9.70;99.90
25280;DHT22;13225;47.804;12.116;2023-10-31T07:07:26;9.70;99.90
25280;DHT22;13225;47.804;12.116;2023-10-31T07:09:51;9.80;99.90
25280;DHT22;13225;47.804;12.116;2023-10-31T07:12:17;9.80;99.90
25280;DHT22;13225;47.804;12.116;2023-10-31T07:14:42;9.80;99.90
25280;DHT22;13225;47.804;12.116;2023-10-31T07:17:08;9.80;99.90
25280;DHT22;13225;47.804;12.116;2023-10-31T07:19:34;9.90;99.90
25280;DHT22;13225;47.804;12.116;2023-10-31T07:21:59;9.90;99.90
25280;DHT22;13225;47.804;12.116;2023-10-31T07:24:25;9.90;99.90
25280;DHT22;13225;47.804;12.116;2023-10-31T07:26:52;9.90;99.90
25280;DHT22;13225;47.804;12.116;2023-10-31T07:29:18;10.00;99.90
25280;DHT22;13225;47.804;12.116;2023-10-31T07:31:43;10.00;99.90
25280;DHT22;13225;47.804;12.116;2023-10-31T07:34:09;10.00;99.90
25280;DHT22;13225;47.804;12.116;2023-10-31T07:36:36;9.90;99.90
25280;DHT22;13225;47.804;12.116;2023-10-31T07:39:02;9.90;99.90
25280;DHT22;13225;47.804;12.116;2023-10-31T07:41:29;9.90;99.90
25280;DHT22;13225;47.804;12.116;2023-10-31T07:43:55;9.90;99.90
25280;DHT22;13225;47.804;12.116;2023-10-31T07:46:20;9.90;99.90
25280;DHT22;13225;47.804;12.116;2023-10-31T07:48:46;9.80;99.90
25280;DHT22;13225;47.804;12.116;2023-10-31T07:51:12;9.90;99.90
25280;DHT22;13225;47.804;12.116;2023-10-31T07:53:38;10.00;99.90
25280;DHT22;13225;47.804;12.116;2023-10-31T07:56:03;10.10;99.90
25280;DHT22;13225;47.804;12.116;2023-10-31T07:58:29;10.10;99.90
25280;DHT22;13225;47.804;12.116;2023-10-31T08:00:56;10.10;99.90
25280;DHT22;13225;47.804;12.116;2023-10-31T08:03:21;10.10;99.90
25280;DHT22;13225;47.804;12.116;2023-10-31T08:05:47;10.10;99.90
25280;DHT22;13225;47.804;12.116;2023-10-31T08:08:13;10.00;99.90
25280;DHT22;13225;47.804;12.116;2023-10-31T08:10:38;9.90;99.90
25280;DHT22;13225;47.804;12.116;2023-10-31T08:13:04;9.90;99.90
25280;DHT22;13225;47.804;12.116;2023-10-31T08:15:30;9.80;99.90
25280;DHT22;13225;47.804;12.116;2023-10-31T08:17:55;9.80;99.90
25280;DHT22;13225;47.804;12.116;2023-10-31T08:20:21;9.70;99.90
25280;DHT22;13225;47.804;12.116;2023-10-31T08:22:46;9.70;99.90
25280;DHT22;13225;47.804;12.116;2023-10-31T08:25:12;9.70;99.90
25280;DHT22;13225;47.804;12.116;2023-10-31T08:27:37;9.60;99.90
25280;DHT22;13225;47.804;12.116;2023-10-31T08:30:03;9.60;99.90
25280;DHT22;13225;47.804;12.116;2023-10-31T08:32:29;9.70;99.90
25280;DHT22;13225;47.804;12.116;2023-10-31T08:34:54;9.60;99.90
25280;DHT22;13225;47.804;12.116;2023-10-31T08:37:21;9.60;99.90
25280;DHT22;13225;47.804;12.116;2023-10-31T08:39:47;9.60;99.90
25280;DHT22;13225;47.804;12.116;2023-10-31T08:42:12;9.60;99.90
25280;DHT22;13225;47.804;12.116;2023-10-31T08:44:40;9.60;99.90
25280;DHT22;13225;47.804;12.116;2023-10-31T08:47:05;9.60;99.90
25280;DHT22;13225;47.804;12.116;2023-10-31T08:49:31;9.60;99.90
25280;DHT22;13225;47.804;12.116;2023-10-31T08:51:57;9.60;99.90
25280;DHT22;13225;47.804;12.116;2023-10-31T08:54:22;9.70;99.90
25280;DHT22;13225;47.804;12.116;2023-10-31T08:56:48;9.60;99.90
25280;DHT22;13225;47.804;12.116;2023-10-31T08:59:14;9.70;99.90
25280;DHT22;13225;47.804;12.116;2023-10-31T09:01:39;9.60;99.90
25280;DHT22;13225;47.804;12.116;2023-10-31T09:04:05;9.70;99.90
25280;DHT22;13225;47.804;12.116;2023-10-31T09:06:31;9.70;99.90
25280;DHT22;13225;47.804;12.116;2023-10-31T09:08:56;9.80;99.90
25280;DHT22;13225;47.804;12.116;2023-10-31T09:11:22;9.80;99.90
25280;DHT22;13225;47.804;12.116;2023-10-31T09:13:47;9.70;99.90
25280;DHT22;13225;47.804;12.116;2023-10-31T09:16:13;9.70;99.90
25280;DHT22;13225;47.804;12.116;2023-10-31T09:18:39;9.80;99.90
25280;DHT22;13225;47.804;12.116;2023-10-31T09:21:04;9.80;99.90
25280;DHT22;13225;47.804;12.116;2023-10-31T09:23:30;9.80;99.90
25280;DHT22;13225;47.804;12.116;2023-10-31T09:25:55;9.80;99.90
25280;DHT22;13225;47.804;12.116;2023-10-31T09:28:21;9.90;99.90
25280;DHT22;13225;47.804;12.116;2023-10-31T09:30:47;9.90;99.90
25280;DHT22;13225;47.804;12.116;2023-10-31T09:33:13;9.90;99.90
25280;DHT22;13225;47.804;12.116;2023-10-31T09:35:39;9.90;99.90
25280;DHT22;13225;47.804;12.116;2023-10-31T09:38:04;10.00;99.90
25280;DHT22;13225;47.804;12.116;2023-10-31T09:40:30;10.00;99.90
25280;DHT22;13225;47.804;12.116;2023-10-31T09:42:55;10.00;99.90
25280;DHT22;13225;47.804;12.116;2023-10-31T09:45:22;9.90;99.90
25280;DHT22;13225;47.804;12.116;2023-10-31T09:47:47;9.90;99.90
25280;DHT22;13225;47.804;12.116;2023-10-31T09:50:13;9.90;99.90
25280;DHT22;13225;47.804;12.116;2023-10-31T09:52:39;10.00;99.90
25280;DHT22;13225;47.804;12.116;2023-10-31T09:55:05;10.00;99.90
25280;DHT22;13225;47.804;12.116;2023-10-31T09:57:32;9.90;99.90
25280;DHT22;13225;47.804;12.116;2023-10-31T09:59:57;10.00;99.90
25280;DHT22;13225;47.804;12.116;2023-10-31T10:02:23;9.90;99.90
25280;DHT22;13225;47.804;12.116;2023-10-31T10:04:49;9.90;99.90
25280;DHT22;13225;47.804;12.116;2023-10-31T10:07:18;9.90;99.90
25280;DHT22;13225;47.804;12.116;2023-10-31T10:09:45;9.80;99.90
25280;DHT22;13225;47.804;12.116;2023-10-31T10:12:12;9.90;99.90
25280;DHT22;13225;47.804;12.116;2023-10-31T10:14:39;9.90;99.90
25280;DHT22;13225;47.804;12.116;2023-10-31T10:17:23;9.90;99.90
25280;DHT22;13225;47.804;12.116;2023-10-31T10:20:08;9.90;99.90
25280;DHT22;13225;47.804;12.116;2023-10-31T10:22:41;10.00;99.90
25280;DHT22;13225;47.804;12.116;2023-10-31T10:25:15;10.00;99.90
25280;DHT22;13225;47.804;12.116;2023-10-31T10:27:46;10.10;99.90
25280;DHT22;13225;47.804;12.116;2023-10-31T10:30:13;10.00;99.90
25280;DHT22;13225;47.804;12.116;2023-10-31T10:32:39;10.10;99.90
25280;DHT22;13225;47.804;12.116;2023-10-31T10:35:06;10.10;99.90
25280;DHT22;13225;47.804;12.116;2023-10-31T10:37:32;10.10;99.90
25280;DHT22;13225;47.804;12.116;2023-10-31T10:39:57;10.10;99.90
25280;DHT22;13225;47.804;12.116;2023-10-31T10:42:33;10.20;99.90
25280;DHT22;13225;47.804;12.116;2023-10-31T10:45:03;10.40;99.90
25280;DHT22;13225;47.804;12.116;2023-10-31T10:47:31;10.30;99.90
25280;DHT22;13225;47.804;12.116;2023-10-31T10:50:01;10.40;99.90
25280;DHT22;13225;47.804;12.116;2023-10-31T10:52:33;10.40;99.90
25280;DHT22;13225;47.804;12.116;2023-10-31T10:55:04;10.40;99.90
25280;DHT22;13225;47.804;12.116;2023-10-31T10:57:44;10.40;99.90
25280;DHT22;13225;47.804;12.116;2023-10-31T11:00:12;10.50;99.90
25280;DHT22;13225;47.804;12.116;2023-10-31T11:02:43;10.50;99.90
25280;DHT22;13225;47.804;12.116;2023-10-31T11:05:09;10.50;99.90
25280;DHT22;13225;47.804;12.116;2023-10-31T11:07:37;10.50;99.90
25280;DHT22;13225;47.804;12.116;2023-10-31T11:10:03;10.60;99.90
25280;DHT22;13225;47.804;12.116;2023-10-31T11:12:30;10.40;99.90
25280;DHT22;13225;47.804;12.116;2023-10-31T11:15:00;10.40;99.90
25280;DHT22;13225;47.804;12.116;2023-10-31T11:19:55;10.40;99.90
25280;DHT22;13225;47.804;12.116;2023-10-31T11:22:21;10.40;99.90
25280;DHT22;13225;47.804;12.116;2023-10-31T11:24:48;10.40;99.90
25280;DHT22;13225;47.804;12.116;2023-10-31T11:27:15;10.50;99.90
25280;DHT22;13225;47.804;12.116;2023-10-31T11:29:42;10.50;99.90
25280;DHT22;13225;47.804;12.116;2023-10-31T11:32:11;10.60;99.90
25280;DHT22;13225;47.804;12.116;2023-10-31T11:34:41;10.60;99.90
25280;DHT22;13225;47.804;12.116;2023-10-31T11:37:27;10.50;99.90
25280;DHT22;13225;47.804;12.116;2023-10-31T11:40:22;10.60;99.90
25280;DHT22;13225;47.804;12.116;2023-10-31T11:42:52;10.80;99.90
25280;DHT22;13225;47.804;12.116;2023-10-31T11:45:42;10.70;99.90
25280;DHT22;13225;47.804;12.116;2023-10-31T11:48:10;10.80;99.90
25280;DHT22;13225;47.804;12.116;2023-10-31T11:50:37;10.80;99.90
25280;DHT22;13225;47.804;12.116;2023-10-31T11:53:06;10.80;99.90
25280;DHT22;13225;47.804;12.116;2023-10-31T11:55:35;10.80;99.90
25280;DHT22;13225;47.804;12.116;2023-10-31T12:00:39;11.00;99.90
25280;DHT22;13225;47.804;12.116;2023-10-31T12:03:04;11.00;99.90
25280;DHT22;13225;47.804;12.116;2023-10-31T12:05:30;11.00;99.90
25280;DHT22;13225;47.804;12.116;2023-10-31T12:07:56;11.10;99.90
25280;DHT22;13225;47.804;12.116;2023-10-31T12:10:23;11.00;99.90
25280;DHT22;13225;47.804;12.116;2023-10-31T12:12:50;11.10;99.90
25280;DHT22;13225;47.804;12.116;2023-10-31T12:15:15;11.10;99.90
25280;DHT22;13225;47.804;12.116;2023-10-31T12:17:41;11.10;99.90
25280;DHT22;13225;47.804;12.116;2023-10-31T12:20:08;10.90;99.90
25280;DHT22;13225;47.804;12.116;2023-10-31T12:22:34;10.90;99.90
25280;DHT22;13225;47.804;12.116;2023-10-31T12:25:05;11.10;99.90
25280;DHT22;13225;47.804;12.116;2023-10-31T12:27:44;11.10;99.90
25280;DHT22;13225;47.804;12.116;2023-10-31T12:30:12;11.10;99.90
25280;DHT22;13225;47.804;12.116;2023-10-31T12:32:39;11.00;99.90
25280;DHT22;13225;47.804;12.116;2023-10-31T12:35:05;11.00;99.90
25280;DHT22;13225;47.804;12.116;2023-10-31T12:37:31;11.10;99.90
25280;DHT22;13225;47.804;12.116;2023-10-31T12:39:57;11.20;99.90
25280;DHT22;13225;47.804;12.116;2023-10-31T12:42:23;11.00;99.90
25280;DHT22;13225;47.804;12.116;2023-10-31T12:44:55;11.00;99.90
25280;DHT22;13225;47.804;12.116;2023-10-31T12:47:24;11.00;99.90
25280;DHT22;13225;47.804;12.116;2023-10-31T12:50:08;11.00;99.90
25280;DHT22;13225;47.804;12.116;2023-10-31T12:52:47;11.00;99.90
25280;DHT22;13225;47.804;12.116;2023-10-31T12:55:16;11.00;99.90
25280;DHT22;13225;47.804;12.116;2023-10-31T12:57:43;10.90;99.90
25280;DHT22;13225;47.804;12.116;2023-10-31T13:00:10;10.80;99.90
25280;DHT22;13225;47.804;12.116;2023-10-31T13:02:38;10.70;99.90
25280;DHT22;13225;47.804;12.116;2023-10-31T13:05:25;10.70;99.90
25280;DHT22;13225;47.804;12.116;2023-10-31T13:07:52;10.70;99.90
25280;DHT22;13225;47.804;12.116;2023-10-31T13:10:26;10.70;99.90
25280;DHT22;13225;47.804;12.116;2023-10-31T13:12:52;10.70;99.90
25280;DHT22;13225;47.804;12.116;2023-10-31T13:15:22;10.70;99.90
25280;DHT22;13225;47.804;12.116;2023-10-31T13:17:50;10.60;99.90
25280;DHT22;13225;47.804;12.116;2023-10-31T13:20:20;10.70;99.90
25280;DHT22;13225;47.804;12.116;2023-10-31T13:22:46;10.60;99.90
25280;DHT22;13225;47.804;12.116;2023-10-31T13:25:13;10.70;99.90
25280;DHT22;13225;47.804;12.116;2023-10-31T13:27:41;10.70;99.90
25280;DHT22;13225;47.804;12.116;2023-10-31T13:30:09;10.70;99.90
25280;DHT22;13225;47.804;12.116;2023-10-31T13:32:37;10.70;99.90
25280;DHT22;13225;47.804;12.116;2023-10-31T13:35:03;10.70;99.90
25280;DHT22;13225;47.804;12.116;2023-10-31T13:37:30;10.70;99.90
25280;DHT22;13225;47.804;12.116;2023-10-31T13:39:55;10.80;99.90
25280;DHT22;13225;47.804;12.116;2023-10-31T13:42:21;10.90;99.90
25280;DHT22;13225;47.804;12.116;2023-10-31T13:44:47;11.10;99.90
25280;DHT22;13225;47.804;12.116;2023-10-31T13:47:13;11.10;99.90
25280;DHT22;13225;47.804;12.116;2023-10-31T13:49:39;11.20;99.90
25280;DHT22;13225;47.804;12.116;2023-10-31T13:52:05;11.20;99.90
25280;DHT22;13225;47.804;12.116;2023-10-31T13:54:32;11.30;99.90
25280;DHT22;13225;47.804;12.116;2023-10-31T13:56:57;11.10;99.90
25280;DHT22;13225;47.804;12.116;2023-10-31T13:59:24;11.10;99.90
25280;DHT22;13225;47.804;12.116;2023-10-31T14:01:49;11.00;99.90
25280;DHT22;13225;47.804;12.116;2023-10-31T14:04:15;11.00;99.90
25280;DHT22;13225;47.804;12.116;2023-10-31T14:06:41;10.80;99.90
25280;DHT22;13225;47.804;12.116;2023-10-31T14:09:09;10.80;99.90
25280;DHT22;13225;47.804;12.116;2023-10-31T14:11:35;10.60;99.90
25280;DHT22;13225;47.804;12.116;2023-10-31T14:14:02;10.50;99.90
25280;DHT22;13225;47.804;12.116;2023-10-31T14:16:32;10.30;99.90
25280;DHT22;13225;47.804;12.116;2023-10-31T14:18:58;10.30;99.90
25280;DHT22;13225;47.804;12.116;2023-10-31T14:21:23;10.20;99.90
25280;DHT22;13225;47.804;12.116;2023-10-31T14:23:51;10.10;99.90
25280;DHT22;13225;47.804;12.116;2023-10-31T14:26:22;10.00;99.90
25280;DHT22;13225;47.804;12.116;2023-10-31T14:28:48;10.10;99.90
25280;DHT22;13225;47.804;12.116;2023-10-31T14:31:15;9.90;99.90
25280;DHT22;13225;47.804;12.116;2023-10-31T14:33:41;9.90;99.90
25280;DHT22;13225;47.804;12.116;2023-10-31T14:36:07;9.80;99.90
25280;DHT22;13225;47.804;12.116;2023-10-31T14:38:35;9.70;99.90
25280;DHT22;13225;47.804;12.116;2023-10-31T14:41:01;9.60;99.90
25280;DHT22;13225;47.804;12.116;2023-10-31T14:43:27;9.70;99.90
25280;DHT22;13225;47.804;12.116;2023-10-31T14:45:52;9.60;99.90
25280;DHT22;13225;47.804;12.116;2023-10-31T14:48:20;9.60;99.90
25280;DHT22;13225;47.804;12.116;2023-10-31T14:50:46;9.60;99.90
25280;DHT22;13225;47.804;12.116;2023-10-31T14:53:12;9.70;99.90
25280;DHT22;13225;47.804;12.116;2023-10-31T14:55:38;9.70;99.90
25280;DHT22;13225;47.804;12.116;2023-10-31T14:58:04;9.60;99.90
25280;DHT22;13225;47.804;12.116;2023-10-31T15:00:29;9.50;99.90
25280;DHT22;13225;47.804;12.116;2023-10-31T15:02:56;9.50;99.90
25280;DHT22;13225;47.804;12.116;2023-10-31T15:05:21;9.50;99.90
25280;DHT22;13225;47.804;12.116;2023-10-31T15:07:48;9.60;99.90
25280;DHT22;13225;47.804;12.116;2023-10-31T15:10:14;9.60;99.90
25280;DHT22;13225;47.804;12.116;2023-10-31T15:12:39;9.70;99.90
25280;DHT22;13225;47.804;12.116;2023-10-31T15:15:06;9.60;99.90
25280;DHT22;13225;47.804;12.116;2023-10-31T15:17:32;9.70;99.90
25280;DHT22;13225;47.804;12.116;2023-10-31T15:19:57;9.60;99.90
25280;DHT22;13225;47.804;12.116;2023-10-31T15:22:23;9.50;99.90
25280;DHT22;13225;47.804;12.116;2023-10-31T15:24:48;9.60;99.90
25280;DHT22;13225;47.804;12.116;2023-10-31T15:27:15;9.60;99.90